Midway, AR

6:55 AM CDT on September 16, 2014 (GMT -0500)
Boone County | Change Station
CLOSE
Current Station
Airport
Location: Harrison,
Elevation: 1365 ft
Nearby Weather Stations

Elev 1365 ft 36.26 °N, 93.15 °W | Updated 29 minutes ago

Fog
Fog
67 °F
Feels Like 67 °F
N
0
Wind Variable Wind from North

Today
High -- | Low -- °F
--% Chance of Precip.
Yesterday
High -- | Low -- °F
Precip. -- in
6:52 AM 7:15 PM
Last Quarter, 46% visible
Pressure 30.18 in
Visibility 7.0 miles
Clouds Overcast 400 ft
Dew Point 67 °F
Humidity 100%
Rainfall 0.00 in
Snow Depth Not available.
UV 0 out of 12
Pollen 6.30 out of 12
Air Quality Not available.
Flu Activity Not available.
SPECI KHRO 161126Z AUTO 00000KT 7SM OVC004 19/19 A3018 RMK AO2 T01940194

More Conditions Fewer Conditions

Pressure 30.18 in
Visibility 7.0 miles
Clouds Overcast 400 ft
Dew Point 67 °F
Humidity 100%
Rainfall 0.00 in
Snow Depth Not available.
UV 0 out of 12
Pollen 6.30 out of 12
Air Quality Not available.
Flu Activity Not available.
SPECI KHRO 161126Z AUTO 00000KT 7SM OVC004 19/19 A3018 RMK AO2 T01940194

More Conditions Fewer Conditions

10-Day Weather Forecast

Almanac

Astronomy

Sep. 16, 2014 Rise Set
Actual Time 6:52 AM CDT 7:15 PM CDT
Civil Twilight 6:27 AM CDT 7:41 PM CDT
Nautical Twilight 5:56 AM CDT 8:11 PM CDT
Astronomical Twilight 5:26 AM CDT 8:42 PM CDT
Moon 12:10 AM CDT 2:32 PM CDT
Length of Visible Light 13h 14m
Length of Day
12h 22m
Tomorrow will be 2m 17s shorter.
Last Quarter, 46% of the Moon is Illuminated
Today
Last Quarter
Sep 24
New
Oct 1
First Quarter
Oct 8
Full
Oct 15
Last Quarter

Today's Extremes

State Highs State Lows

Community

WunderPhotos

Upload Photos

1,753,724 photos uploaded!

Nearby

Snow Depth

Station Depth Elevation
No new snow has been reported.

Earthquake Activity

City Distance Mag. Time & Date
No recent earthquake activity has been reported nearby.
Minimum magnitude displayed is 2.5.

Coastal Water Temperatures

Place Temperature
No Stations Reporting

Nearby Weather Stations